createdAt,value
2023-02-24T00:02:30.050Z,18.10
2023-02-24T00:05:08.765Z,17.60
2023-02-24T00:07:46.443Z,18.10
2023-02-24T00:10:26.231Z,19.30
2023-02-24T00:13:04.107Z,20.10
2023-02-24T00:15:41.410Z,22.20
2023-02-24T00:18:11.533Z,20.90
2023-02-24T00:20:45.290Z,18.20
2023-02-24T00:23:24.269Z,20.20
2023-02-24T00:26:07.566Z,18.90
2023-02-24T00:28:45.009Z,20.60
2023-02-24T00:31:24.806Z,18.80
2023-02-24T00:34:05.568Z,17.00
2023-02-24T00:36:43.493Z,20.00
2023-02-24T00:39:30.310Z,19.90
2023-02-24T00:42:09.765Z,14.40
2023-02-24T00:44:47.246Z,19.70
2023-02-24T00:47:24.938Z,19.20
2023-02-24T00:49:55.303Z,20.60
2023-02-24T00:52:33.539Z,22.00
2023-02-24T00:55:15.494Z,19.80
2023-02-24T00:57:46.044Z,20.10
2023-02-24T01:00:18.963Z,17.90
2023-02-24T01:02:49.830Z,21.00
2023-02-24T01:05:29.946Z,19.60
2023-02-24T01:08:08.852Z,20.10
2023-02-24T01:11:09.512Z,21.00
2023-02-24T01:13:49.038Z,22.60
2023-02-24T01:16:25.820Z,12.80
2023-02-24T01:18:55.974Z,20.00
2023-02-24T01:21:31.829Z,19.90
2023-02-24T01:24:10.932Z,22.40
2023-02-24T01:26:46.784Z,21.30
2023-02-24T01:29:26.194Z,16.20
2023-02-24T01:32:03.755Z,15.20
2023-02-24T01:34:42.718Z,22.30
2023-02-24T01:37:20.359Z,11.80
2023-02-24T01:39:57.338Z,9.90
2023-02-24T01:42:34.756Z,17.10
2023-02-24T01:45:19.306Z,10.00
2023-02-24T01:47:51.229Z,9.90
2023-02-24T01:50:29.901Z,14.20
2023-02-24T01:53:10.250Z,14.80
2023-02-24T01:55:50.539Z,18.30
2023-02-24T01:58:33.239Z,11.00
2023-02-24T02:01:14.913Z,12.00
2023-02-24T02:06:26.873Z,9.90
2023-02-24T02:08:58.640Z,19.20
2023-02-24T02:11:33.508Z,20.10
2023-02-24T02:14:12.002Z,12.30
2023-02-24T02:17:06.352Z,12.80
2023-02-24T02:20:08.220Z,13.90
2023-02-24T02:23:29.093Z,16.20
2023-02-24T02:26:41.722Z,18.30
2023-02-24T02:30:04.269Z,16.70
2023-02-24T02:33:27.805Z,15.90
2023-02-24T02:36:13.236Z,8.80
2023-02-24T02:39:04.186Z,16.70
2023-02-24T02:41:45.005Z,21.30
2023-02-24T02:44:56.306Z,22.30
2023-02-24T02:47:54.220Z,22.00
2023-02-24T02:50:55.276Z,20.50
2023-02-24T02:53:41.560Z,23.10
2023-02-24T02:56:23.365Z,21.20
2023-02-24T02:58:57.202Z,21.80
2023-02-24T03:01:37.262Z,22.00
2023-02-24T03:04:18.115Z,20.90
2023-02-24T03:07:11.869Z,20.40
2023-02-24T03:09:52.882Z,21.40
2023-02-24T03:12:33.178Z,23.30
2023-02-24T03:15:14.338Z,9.90
2023-02-24T03:17:56.823Z,21.00
2023-02-24T03:20:48.129Z,10.80
2023-02-24T03:23:32.549Z,19.40
2023-02-24T03:26:23.711Z,14.70
2023-02-24T03:29:11.459Z,15.40
2023-02-24T03:32:15.068Z,21.80
2023-02-24T03:35:01.258Z,23.10
2023-02-24T03:37:37.308Z,21.70
2023-02-24T03:40:16.069Z,23.10
2023-02-24T03:43:00.104Z,22.80
2023-02-24T03:45:38.766Z,20.80
2023-02-24T03:48:15.929Z,13.60
2023-02-24T03:50:53.578Z,19.60
2023-02-24T03:54:03.231Z,16.20
2023-02-24T03:57:02.179Z,14.20
2023-02-24T04:00:23.800Z,15.90
2023-02-24T04:03:19.508Z,11.10
2023-02-24T04:06:16.270Z,11.70
2023-02-24T04:09:12.189Z,21.00
2023-02-24T04:12:04.004Z,10.00
2023-02-24T04:15:09.623Z,10.50
2023-02-24T04:17:59.608Z,14.90
2023-02-24T04:20:40.595Z,21.50
2023-02-24T04:23:23.955Z,17.00
2023-02-24T04:26:02.745Z,19.70
2023-02-24T04:28:41.237Z,11.30
2023-02-24T04:31:21.419Z,22.90
2023-02-24T04:34:00.493Z,24.80
2023-02-24T04:36:38.748Z,11.40
2023-02-24T04:39:19.044Z,16.20
2023-02-24T04:41:58.266Z,22.80
2023-02-24T04:44:35.244Z,24.60
2023-02-24T04:47:05.428Z,20.00
2023-02-24T04:49:43.927Z,24.30
2023-02-24T04:52:16.541Z,12.60
2023-02-24T04:54:54.315Z,15.50
2023-02-24T04:57:31.476Z,24.80
2023-02-24T05:00:27.918Z,26.10
2023-02-24T05:02:58.861Z,26.60
2023-02-24T05:05:38.201Z,26.10
2023-02-24T05:08:16.196Z,25.80
2023-02-24T05:10:47.999Z,28.80
2023-02-24T05:13:28.322Z,29.10
2023-02-24T05:16:09.314Z,25.20
2023-02-24T05:18:46.453Z,26.00
2023-02-24T05:21:38.428Z,23.20
2023-02-24T05:24:17.516Z,27.70
2023-02-24T05:27:15.872Z,27.30
2023-02-24T05:29:54.729Z,26.40
2023-02-24T05:32:34.963Z,26.40
2023-02-24T05:35:06.549Z,24.50
2023-02-24T05:37:42.627Z,28.00
2023-02-24T05:40:29.822Z,24.10
2023-02-24T05:43:04.663Z,27.60
2023-02-24T05:45:40.608Z,27.50
2023-02-24T05:48:19.213Z,27.40
2023-02-24T05:51:00.000Z,23.80
2023-02-24T05:53:30.622Z,28.20
2023-02-24T05:56:08.521Z,26.40
2023-02-24T05:58:45.644Z,30.60
2023-02-24T06:01:20.764Z,30.20
2023-02-24T06:03:51.787Z,33.70
2023-02-24T06:06:24.027Z,30.00
2023-02-24T06:08:55.738Z,28.60
2023-02-24T06:11:26.384Z,25.90
2023-02-24T06:14:07.557Z,35.50
2023-02-24T06:16:45.466Z,28.90
2023-02-24T06:19:25.875Z,33.20
2023-02-24T06:22:04.377Z,25.00
2023-02-24T06:24:45.586Z,39.30
2023-02-24T06:27:25.486Z,42.80
2023-02-24T06:30:03.984Z,25.90
2023-02-24T06:32:41.159Z,41.80
2023-02-24T06:35:17.793Z,25.50
2023-02-24T06:37:57.975Z,23.90
2023-02-24T06:40:35.077Z,22.20
2023-02-24T06:43:05.454Z,22.70
2023-02-24T06:45:41.557Z,20.90
2023-02-24T06:48:18.882Z,24.40
2023-02-24T06:50:57.237Z,20.60
2023-02-24T06:53:36.436Z,22.20
2023-02-24T06:56:20.419Z,21.80
2023-02-24T06:58:59.529Z,20.30
2023-02-24T07:01:45.926Z,21.60
2023-02-24T07:04:27.880Z,20.50
2023-02-24T07:07:03.809Z,26.20
2023-02-24T07:09:37.285Z,18.50
2023-02-24T07:12:17.577Z,24.40
2023-02-24T07:14:54.359Z,22.10
2023-02-24T07:17:31.063Z,19.50
2023-02-24T07:20:12.710Z,20.70
2023-02-24T07:22:44.387Z,19.10
2023-02-24T07:25:33.817Z,18.90
2023-02-24T07:28:12.435Z,18.60
2023-02-24T07:30:43.793Z,21.60
2023-02-24T07:33:23.673Z,20.10
2023-02-24T07:35:54.299Z,19.60
2023-02-24T07:38:24.385Z,20.60
2023-02-24T07:41:03.127Z,20.70
2023-02-24T07:43:38.897Z,18.60
2023-02-24T07:46:24.977Z,20.50
2023-02-24T07:49:03.993Z,20.60
2023-02-24T07:51:37.636Z,18.00
2023-02-24T07:54:16.099Z,19.30
2023-02-24T07:56:59.965Z,19.30
2023-02-24T07:59:38.756Z,17.60
2023-02-24T08:02:16.579Z,18.60
2023-02-24T08:04:55.955Z,19.50
2023-02-24T08:07:34.104Z,17.50
2023-02-24T08:10:24.610Z,17.00
2023-02-24T08:13:03.531Z,18.90
2023-02-24T08:15:39.206Z,19.90
2023-02-24T08:18:20.684Z,15.90
2023-02-24T08:21:05.222Z,17.30
2023-02-24T08:23:45.151Z,18.50
2023-02-24T08:26:30.733Z,13.00
2023-02-24T08:29:12.956Z,16.30
2023-02-24T08:31:45.374Z,17.30
2023-02-24T08:34:28.007Z,15.20
2023-02-24T08:37:05.156Z,15.50
2023-02-24T08:39:40.339Z,15.50
2023-02-24T08:42:14.613Z,15.50
2023-02-24T08:44:54.378Z,14.80
2023-02-24T08:47:36.514Z,16.20
2023-02-24T08:50:15.944Z,16.60
2023-02-24T08:52:54.195Z,21.10
2023-02-24T08:55:33.628Z,21.90
2023-02-24T08:58:19.990Z,37.30
2023-02-24T09:00:59.682Z,20.40
2023-02-24T09:03:46.392Z,28.90
2023-02-24T09:06:27.607Z,18.30
2023-02-24T09:09:19.890Z,21.00
2023-02-24T09:12:00.727Z,23.50
2023-02-24T09:14:39.619Z,21.10
2023-02-24T09:17:20.968Z,17.80
2023-02-24T09:23:01.290Z,17.90
2023-02-24T09:25:50.258Z,23.50
2023-02-24T09:28:29.579Z,12.30
2023-02-24T09:31:07.406Z,15.10
2023-02-24T09:33:43.095Z,19.30
2023-02-24T09:36:40.686Z,17.80
2023-02-24T09:39:23.815Z,17.80
2023-02-24T09:42:12.155Z,20.80
2023-02-24T09:45:03.278Z,25.70
2023-02-24T09:47:56.196Z,19.50
2023-02-24T09:51:30.551Z,16.60
2023-02-24T09:54:14.575Z,15.70
2023-02-24T09:57:17.620Z,15.40
2023-02-24T10:00:36.592Z,15.10
2023-02-24T10:03:43.105Z,16.00
2023-02-24T10:06:38.717Z,13.60
2023-02-24T10:09:35.928Z,12.10
2023-02-24T10:12:29.568Z,13.10
2023-02-24T10:15:19.991Z,14.00
2023-02-24T10:18:00.286Z,13.80
2023-02-24T10:20:49.599Z,12.30
2023-02-24T10:24:02.846Z,12.30
2023-02-24T10:26:59.688Z,12.00
2023-02-24T10:30:21.810Z,11.20
2023-02-24T10:33:06.027Z,12.70
2023-02-24T10:35:42.236Z,12.30
2023-02-24T10:38:20.468Z,10.50
2023-02-24T10:41:07.544Z,11.60
2023-02-24T10:43:57.512Z,8.50
2023-02-24T10:46:42.110Z,10.40
2023-02-24T10:49:28.214Z,6.10
2023-02-24T10:52:11.827Z,10.40
2023-02-24T10:55:29.170Z,10.00
2023-02-24T10:58:40.665Z,9.00
2023-02-24T11:01:50.018Z,9.10
2023-02-24T11:04:59.664Z,9.70
2023-02-24T11:07:55.525Z,8.60
2023-02-24T11:10:44.111Z,7.70
2023-02-24T11:13:44.052Z,8.60
2023-02-24T11:16:42.854Z,7.40
2023-02-24T11:19:19.795Z,8.00
2023-02-24T11:21:57.564Z,8.10
2023-02-24T11:24:33.292Z,5.80
2023-02-24T11:27:13.015Z,6.80
2023-02-24T11:30:17.742Z,6.80
2023-02-24T11:33:12.315Z,5.50
2023-02-24T11:36:04.362Z,6.90
2023-02-24T11:39:42.551Z,6.70
2023-02-24T11:42:29.697Z,6.00
2023-02-24T11:45:25.266Z,5.60
2023-02-24T11:48:26.216Z,7.10
2023-02-24T11:51:24.563Z,5.90
2023-02-24T11:54:19.932Z,7.20
2023-02-24T11:57:02.944Z,7.30
2023-02-24T11:59:53.161Z,6.80
2023-02-24T12:03:15.640Z,6.80
2023-02-24T12:05:57.267Z,7.50
2023-02-24T12:08:40.347Z,6.30
2023-02-24T12:11:40.815Z,7.20
2023-02-24T12:14:42.435Z,6.50
2023-02-24T12:17:45.224Z,7.10
2023-02-24T12:21:01.165Z,9.50
2023-02-24T12:23:45.147Z,8.50
2023-02-24T12:26:29.441Z,7.30
2023-02-24T12:29:51.752Z,8.10
2023-02-24T12:33:21.355Z,7.20
2023-02-24T12:36:46.522Z,8.10
2023-02-24T12:39:59.286Z,9.10
2023-02-24T12:43:04.292Z,9.20
2023-02-24T12:46:31.181Z,7.70
2023-02-24T12:49:40.373Z,7.30
2023-02-24T12:52:45.620Z,8.50
2023-02-24T12:55:42.618Z,7.80
2023-02-24T12:58:29.043Z,8.00
2023-02-24T13:01:27.680Z,6.50
2023-02-24T13:04:26.630Z,7.90
2023-02-24T13:07:43.402Z,7.10
2023-02-24T13:10:33.278Z,6.90
2023-02-24T13:13:33.951Z,7.40
2023-02-24T13:16:15.753Z,7.00
2023-02-24T13:18:49.876Z,8.40
2023-02-24T13:21:30.866Z,7.70
2023-02-24T13:24:22.680Z,9.50
2023-02-24T13:27:15.789Z,6.80
2023-02-24T13:30:04.527Z,6.80
2023-02-24T13:32:47.758Z,7.50
2023-02-24T13:35:28.896Z,6.60
2023-02-24T13:38:24.471Z,8.50
2023-02-24T13:41:31.348Z,6.80
2023-02-24T13:44:30.451Z,7.30
2023-02-24T13:48:01.340Z,7.80
2023-02-24T13:51:09.175Z,7.40
2023-02-24T13:54:22.164Z,8.20
2023-02-24T13:57:34.433Z,7.70
2023-02-24T14:00:56.938Z,4.90
2023-02-24T14:03:46.316Z,7.90
2023-02-24T14:06:38.820Z,8.20
2023-02-24T14:12:04.833Z,8.10
2023-02-24T14:14:39.930Z,8.30
2023-02-24T14:17:40.803Z,8.90
2023-02-24T14:23:24.006Z,8.30
2023-02-24T14:26:05.724Z,9.00
2023-02-24T14:28:42.093Z,11.70
2023-02-24T14:31:22.984Z,9.60
2023-02-24T14:34:04.530Z,7.60
2023-02-24T14:36:46.984Z,8.80
2023-02-24T14:39:30.115Z,9.20
2023-02-24T14:42:16.924Z,7.80
2023-02-24T14:45:02.849Z,9.30
2023-02-24T14:47:45.442Z,6.90
2023-02-24T14:50:29.833Z,9.60
2023-02-24T14:53:17.387Z,7.80
2023-02-24T14:56:03.432Z,9.50
2023-02-24T14:58:53.115Z,9.40
2023-02-24T15:01:48.879Z,7.40
2023-02-24T15:04:40.423Z,10.20
2023-02-24T15:07:31.535Z,8.80
2023-02-24T15:10:21.728Z,9.20
2023-02-24T15:13:18.306Z,8.30
2023-02-24T15:15:52.519Z,10.20
2023-02-24T15:18:33.748Z,9.40
2023-02-24T15:21:32.602Z,9.50
2023-02-24T15:24:35.566Z,8.20
2023-02-24T15:27:18.339Z,10.30
2023-02-24T15:30:33.514Z,10.00
2023-02-24T15:33:26.394Z,10.30
2023-02-24T15:36:00.806Z,9.40
2023-02-24T15:38:41.091Z,11.10
2023-02-24T15:41:18.091Z,10.80
2023-02-24T15:43:57.519Z,11.50
2023-02-24T15:46:39.168Z,8.40
2023-02-24T15:49:16.323Z,11.30
2023-02-24T15:51:55.227Z,8.60
2023-02-24T15:54:43.623Z,9.20
2023-02-24T15:57:20.320Z,8.70
2023-02-24T15:59:58.314Z,9.10
2023-02-24T16:02:35.902Z,9.60
2023-02-24T16:05:17.553Z,10.00
2023-02-24T16:07:49.766Z,10.30
2023-02-24T16:10:32.318Z,9.30
2023-02-24T16:13:10.781Z,10.00
2023-02-24T16:15:48.718Z,9.30
2023-02-24T16:18:26.980Z,8.10
2023-02-24T16:21:04.417Z,7.90
2023-02-24T16:23:41.550Z,9.80
2023-02-24T16:26:23.972Z,8.90
2023-02-24T16:29:02.530Z,14.30
2023-02-24T16:31:41.195Z,7.90
2023-02-24T16:34:19.637Z,8.50
2023-02-24T16:36:56.379Z,10.00
2023-02-24T16:39:27.496Z,9.60
2023-02-24T16:42:00.353Z,8.80
2023-02-24T16:44:38.494Z,7.60
2023-02-24T16:47:21.443Z,7.50
2023-02-24T16:50:00.852Z,8.10
2023-02-24T16:52:38.170Z,8.80
2023-02-24T16:55:17.480Z,8.90
2023-02-24T16:57:54.326Z,8.00
2023-02-24T17:00:32.735Z,9.60
2023-02-24T17:03:31.492Z,8.60
2023-02-24T17:06:02.115Z,7.80
2023-02-24T17:08:42.018Z,11.20
2023-02-24T17:11:22.508Z,8.40
2023-02-24T17:14:01.130Z,8.40
2023-02-24T17:16:40.678Z,9.00
2023-02-24T17:19:18.051Z,8.90
2023-02-24T17:21:54.870Z,10.30
2023-02-24T17:24:31.557Z,6.50
2023-02-24T17:27:08.917Z,5.50
2023-02-24T17:29:45.524Z,5.90
2023-02-24T17:32:15.843Z,6.00
2023-02-24T17:34:46.304Z,4.70
2023-02-24T17:37:22.513Z,8.60
2023-02-24T17:39:52.724Z,7.40
2023-02-24T17:42:29.364Z,6.00
2023-02-24T17:45:07.482Z,6.40
2023-02-24T17:47:45.083Z,7.00
2023-02-24T17:50:22.277Z,5.70
2023-02-24T17:52:59.344Z,5.50
2023-02-24T17:55:36.335Z,6.40
2023-02-24T17:58:07.041Z,5.60
2023-02-24T18:00:43.007Z,6.90
2023-02-24T18:03:20.810Z,7.00
2023-02-24T18:06:06.289Z,7.20
2023-02-24T18:08:43.126Z,6.50
2023-02-24T18:11:21.238Z,7.10
2023-02-24T18:14:00.512Z,5.70
2023-02-24T18:16:37.842Z,8.30
2023-02-24T18:19:15.285Z,9.10
2023-02-24T18:21:52.267Z,8.60
2023-02-24T18:24:29.703Z,5.80
2023-02-24T18:26:59.765Z,6.40
2023-02-24T18:29:37.997Z,8.10
2023-02-24T18:32:08.194Z,7.90
2023-02-24T18:34:44.379Z,7.10
2023-02-24T18:37:22.457Z,8.00
2023-02-24T18:39:59.182Z,7.00
2023-02-24T18:42:36.268Z,6.30
2023-02-24T18:45:13.784Z,6.20
2023-02-24T18:47:52.515Z,7.40
2023-02-24T18:50:29.224Z,5.80
2023-02-24T18:53:06.883Z,5.80
2023-02-24T18:55:44.578Z,6.10
2023-02-24T18:58:20.779Z,5.80
2023-02-24T19:00:57.666Z,6.60
2023-02-24T19:03:27.791Z,6.80
2023-02-24T19:06:04.797Z,6.90
2023-02-24T19:08:41.893Z,6.20
2023-02-24T19:11:22.661Z,6.20
2023-02-24T19:14:01.030Z,7.10
2023-02-24T19:16:38.657Z,7.10
2023-02-24T19:19:17.969Z,6.90
2023-02-24T19:21:54.662Z,7.10
2023-02-24T19:24:32.427Z,7.50
2023-02-24T19:27:11.528Z,7.90
2023-02-24T19:29:48.746Z,7.70
2023-02-24T19:32:25.993Z,8.30
2023-02-24T19:35:03.191Z,7.30
2023-02-24T19:37:40.331Z,7.30
2023-02-24T19:40:18.586Z,6.20
2023-02-24T19:42:53.756Z,7.90
2023-02-24T19:45:27.213Z,7.70
2023-02-24T19:48:05.122Z,7.90
2023-02-24T19:50:46.835Z,6.70
2023-02-24T19:53:23.848Z,7.50
2023-02-24T19:56:00.691Z,7.70
2023-02-24T19:58:39.083Z,7.40
2023-02-24T20:01:18.800Z,7.90
2023-02-24T20:03:58.961Z,8.70
2023-02-24T20:06:40.689Z,7.70
2023-02-24T20:09:22.370Z,8.90
2023-02-24T20:14:37.274Z,8.70
2023-02-24T20:17:08.317Z,9.80
2023-02-24T20:19:39.883Z,9.60
2023-02-24T20:22:15.729Z,8.30
2023-02-24T20:24:48.161Z,9.10
2023-02-24T20:27:24.776Z,8.90
2023-02-24T20:30:05.150Z,9.30
2023-02-24T20:32:43.295Z,9.20
2023-02-24T20:35:21.809Z,8.90
2023-02-24T20:37:58.288Z,11.20
2023-02-24T20:40:37.150Z,9.20
2023-02-24T20:43:10.601Z,9.80
2023-02-24T20:45:41.310Z,10.20
2023-02-24T20:48:12.182Z,10.40
2023-02-24T20:50:48.684Z,10.80
2023-02-24T20:53:25.671Z,9.10
2023-02-24T20:56:07.733Z,11.00
2023-02-24T20:58:44.553Z,11.00
2023-02-24T21:01:22.694Z,11.30
2023-02-24T21:03:59.501Z,14.00
2023-02-24T21:06:36.788Z,12.10
2023-02-24T21:09:08.059Z,11.10
2023-02-24T21:11:39.365Z,12.70
2023-02-24T21:14:19.478Z,13.50
2023-02-24T21:16:50.612Z,13.70
2023-02-24T21:19:28.630Z,13.20
2023-02-24T21:22:05.743Z,14.60
2023-02-24T21:24:42.334Z,13.80
2023-02-24T21:27:13.083Z,14.50
2023-02-24T21:29:46.667Z,14.80
2023-02-24T21:32:18.160Z,13.50
2023-02-24T21:34:50.437Z,13.90
2023-02-24T21:37:21.233Z,15.60
2023-02-24T21:39:52.109Z,12.60
2023-02-24T21:42:23.317Z,12.10
2023-02-24T21:45:02.747Z,11.30
2023-02-24T21:47:33.539Z,11.30
2023-02-24T21:50:12.223Z,9.70
2023-02-24T21:52:49.429Z,10.00
2023-02-24T21:55:26.753Z,10.90
2023-02-24T21:58:03.912Z,8.10
2023-02-24T22:00:41.396Z,10.60
2023-02-24T22:03:11.609Z,9.60
2023-02-24T22:05:54.072Z,9.70
2023-02-24T22:08:31.112Z,9.40
2023-02-24T22:11:02.592Z,9.70
2023-02-24T22:13:33.399Z,10.20
2023-02-24T22:16:12.918Z,10.20
2023-02-24T22:18:47.216Z,11.30
2023-02-24T22:21:26.498Z,10.70
2023-02-24T22:24:06.018Z,10.70
2023-02-24T22:26:42.885Z,11.90
2023-02-24T22:29:20.484Z,7.50
2023-02-24T22:31:56.985Z,5.20
2023-02-24T22:34:34.204Z,12.30
2023-02-24T22:37:04.486Z,10.00
2023-02-24T22:39:35.653Z,12.40
2023-02-24T22:42:09.605Z,12.50
2023-02-24T22:44:47.451Z,13.40
2023-02-24T22:47:24.538Z,12.60
2023-02-24T22:49:55.180Z,12.40
2023-02-24T22:52:32.824Z,11.20
2023-02-24T22:55:10.374Z,11.90
2023-02-24T22:57:47.476Z,13.20
2023-02-24T23:00:23.399Z,12.90
2023-02-24T23:02:53.449Z,12.30
2023-02-24T23:05:31.638Z,13.50
2023-02-24T23:08:08.760Z,12.80
2023-02-24T23:10:45.517Z,11.60
2023-02-24T23:13:17.057Z,12.10
2023-02-24T23:15:51.492Z,11.70
2023-02-24T23:18:28.070Z,11.50
2023-02-24T23:21:05.795Z,13.00
2023-02-24T23:23:38.087Z,12.10
2023-02-24T23:26:11.817Z,11.90
2023-02-24T23:28:50.370Z,11.80
2023-02-24T23:31:26.665Z,10.10
2023-02-24T23:34:07.565Z,11.80
2023-02-24T23:36:46.681Z,11.40
2023-02-24T23:39:24.325Z,12.10
2023-02-24T23:42:01.427Z,11.60
2023-02-24T23:44:40.348Z,12.10
2023-02-24T23:47:10.487Z,10.30
2023-02-24T23:49:48.839Z,12.70
2023-02-24T23:52:26.185Z,11.80
2023-02-24T23:55:03.864Z,10.40
2023-02-24T23:57:40.977Z,9.70
